메인 페이지
METAR-TAF:

METAR-TAF

공항 :

University of Oklahoma Westheimer Airport

Norman, 오클라호마, 미국

위도: 35-13N, 경도: 097-27W, 고도: 357m

현재 날씨관측

예보는 27분 전, 00:45시(UTC)에 발표되었습니다.
남동13kt
온도 27°C
습도 74%
기압 1011 hPa
시정: 16.1km
고도 2800ft 상공 구름 많음

METAR: KOUN 150045Z 14013KT 10SM BKN028 27/22 A2986 RMK LGT VCNTY OF ARPT DSNT NW

시각: 20:12 (01:12 UTC)

예보

예보는 1 시간 33분 전, 23:39시(UTC)에 발표되었습니다.
예보 대상 시간: 15일 00시부터 15일 24시까지 (UTC)
10kt
시정: 10km
고도 2000ft 상공 구름 보통
고도 25000ft 상공 구름 많음
일시적
15일 00시부터 15일 02시까지 (UTC)
여러 방향의 바람 20kt, 순간 최대 풍속 30kt
시정: 1.6km
고도 2500ft 상공 흐림, 적란운.
뇌우, 강한비
15일 0300시부터 (UTC)
10kt
시정: 10km
고도 4000ft 상공 구름 많음
시계 내 소나기
일시적
15일 04시부터 15일 08시까지 (UTC)
시정: 4.8km
고도 1200ft 상공 구름 많음, 적란운.
뇌우, 비
15일 1900시부터 (UTC)
10kt
시정: 10km
고도 2500ft 상공 구름 많음
15일 2100시부터 (UTC)
서북서10kt
시정: 10km
고도 25000ft 상공 구름 보통

TAF: KOUN 142339Z 1500/1524 19010KT P6SM SCT020 BKN250 TEMPO 1500/1502 VRB20G30KT 1SM +TSRA OVC025CB FM150300 19010KT P6SM VCSH BKN040 TEMPO 1504/1508 3SM TSRA BKN012CB FM151900 28010KT P6SM BKN025 FM152100 30010KT P6SM SCT250

4,000개 이상의 공항 관측 자료 및 예보 (METAR 및 TAF 보고).

지도상에서 검색 가능한 기상관측소가 노란 점과 빨간 점으로 표시되어 있습니다.

기상관측소 명을 보려면 표시 위로 마우스를 이동하세요.

날씨 관측과 예보를 보려면 클릭하세요.

지도 변경 : 확대하려면 엑스 표시가 있는 녹색 버튼, 축소하려면 빼기 표시가 있는 녹색 버튼, 다음 페이지의 지도를 보려면 녹색 화살표를 클릭하세요.


METAR-TAF: